Etusivu
METAR-TAF:

METAR-TAF

Lentoasemat :

Istres, Ranska

Leveyspiiri: 43-31N, Pituuspiiri: 004-56E, korkeus merenpinnasta: 23 m

Tämänhetkinen sää

Tämä raportti tehtiin 42 minuuttia sitten, kello 19.30 UTC
Tuuli 5 kn kaakosta
Lämpötila 24°C
Kosteus 74%
Ilmanpaine 1019 hPa
Näkyvyys 10 km tai enemmän
ei pilviä alle 1500 m:ssä eikä cumulonimbus-pilviä

METAR: LFMI 231930Z AUTO 14005KT CAVOK 24/19 Q1019 NOSIG

Aika: 22:12 (20:12 UTC)

Sääennuste

Tämä raportti tehtiin 6 tuntia ja 12 minuuttia sitten, kello 14.00 UTC
Ennuste voimassa 23. päivästä klo 15 UTC - 24. päivään klo 15 UTC
Tuuli 10 kn etelästä
Näkyvyys 10 km tai enemmän
ei pilviä alle 1500 m:ssä eikä cumulonimbus-pilviä
Tulossa
23. päivästä klo 17 UTC - 23. päivään klo 19 UTC
Tuuli 5 kn eri suunnista
Tulossa
24. päivästä klo 11 UTC - 24. päivään klo 12 UTC
Tuuli 10 kn lounaasta

TAF: LFMI 231400Z 2315/2415 18010KT CAVOK BECMG 2317/2319 VRB05KT BECMG 2411/2412 22010KT

Säähavainnot ja -ennusteet yli 4000 lentoasemalta (METAR- ja TAF-raportit).

Käytössä olevat sääasemat on merkitty karttaan keltaisilla ja punaisilla pisteillä.

Aseta hiiri pisteen päälle nähdäksesi sääaseman nimen.

Klikkaa sitten nähdäksesi säähavainnot ja -ennusteet.

Kartan vaihtaminen: klikkaa mustalla rastilla varustettuja vihreitä pisteitä, niin voit zoomata sisään; viivalla varustettua vihreää pistettä, niin voit zoomata ulos tai vihreitä nuolia, niin pääset viereisille kartoille.


METAR-TAF: